Tamarack, Minnesota
Current Conditions -  °F | °C
As of 1:25 PM on Thursday 23 Oct 2014 (Local Time) from KHZX Reporting Station
Scattered Clouds Scattered Clouds  
Wind Chill: 57°   Ceiling: Unl
Heat Index: 57°   Visibility: 10mi
Dew Point: 50°   Wind: 8mph
Humidity: 77%   Direction: 210°SSW
Pressure: 29.95"   Gusts: NA
Location:  46.64°N, 93.13°W
Report Text: KHZX 231825Z AUTO 21007KT 10SM SCT011 14/10 A2995 RMK AO2
Loading
Personal Weather Stations






























Interactive Weather Map
Tropical Storm Tracking
New forecast layout! Learn more

10-Day Weather Forecast

Advertisements
Track Severe Weather on mobile